Other Surface Observations
Issued by NWS Great Falls, MT

Home | Current Version | Previous Version | Text Only | Print | Product List | Glossary On
Versions: 1 2 3 4 5 6 7 8 9 10 11 12 13 14 15 16 17 18 19 20 21 22 23 24 25 26 27 28 29 30 31 32 33 34 35 36 37 38 39 40 41 42 43 44 45 46 47 48 49 50
026
SXUS55 KTFX 100307
OSOTFX

AREA AWOS OBSERVATIONS
NATIONAL WEATHER SERVICE GREAT FALLS MT
0806 PM MST Tue Feb 09 2016

METAR K6S8 100255Z AUTO 22008KT 40SM 06/M06 A3010 RMK A01 T00611055
METAR K6S8 100155Z AUTO 20011KT 40SM 08/M06 A3012 RMK A01 T00831061
METAR K7S1 100255Z AUTO 13005KT 40SM M02/M07 A3026 RMK A01 T10161066
METAR K97M 100155Z AUTO 30001KT 40SM 03/M04 A3004 RMK A01 T00331044
METAR K9S5 100255Z AUTO 09000KT 10SM M02/M04 A3024 RMK A01 T10221038
METAR KM75 100255Z AUTO  40SM 124/124 A2996 RMK A01 T012301238
METAR KRPX 100255Z AUTO 20003KT 40SM 08/M06 A2999 RMK A01 T00771061
METAR KS01 100255Z AUTO 20007KT 40SM 06/M04 A3009 RMK A01 T00551044
METAR KTHM 100155Z AUTO 08000KT 40SM 04/00 A3030 RMK A01 T00380000



USA.gov is the U.S. government's official web portal to all federal, state and local government web resources and services.